Data for 02/17/2018

Time Sea-Level Adjusted Pressure Absolute Pressure Temperature Relative Humidity Dew Point   
(mb) (inHg) (mb) (inHg) (C) (F) (%) (C) (F)
00:05 1015 29.97 844 24.92 -2.7 27.1 57 -10 13.9
00:10 1015 29.97 844 24.92 -2.7 27.1 58 -9.8 14.4
00:15 1015 29.97 844 24.92 -2.8 27 59 -9.8 14.4
00:20 1015 29.97 845 24.95 -2.9 26.9 61 -9.5 15
00:25 1015 29.97 845 24.95 -3.2 26.3 66 -8.6 16.5
00:30 1015 29.97 845 24.95 -3.5 25.6 67 -8.8 16.2
00:35 1015 29.97 845 24.95 -3.6 25.5 68 -8.7 16.4
00:40 1015 29.97 845 24.95 -3.5 25.7 66 -8.9 15.9
00:45 1015 29.97 845 24.95 -3.4 25.9 60 -10 14.1
00:50 1016 30 845 24.95 -3.1 26.4 60 -9.9 14.2
00:55 1016 30 845 24.95 -3.1 26.4 60 -9.9 14.2
01:00 1016 30 845 24.95 -3.2 26.2 60 -9.9 14.1
01:05 1016 30 845 24.95 -3.2 26.2 61 -9.8 14.4
01:10 1016 30 845 24.95 -3.3 26.1 61 -9.8 14.4
01:15 1016 30 845 24.95 -3.3 26.1 61 -9.9 14.3
01:20 1016 30 845 24.95 -3.3 26.1 60 -9.9 14.2
01:25 1016 30 845 24.95 -3.2 26.2 59 -10 14
01:30 1016 30 845 24.95 -3.1 26.5 58 -10.2 13.7
01:35 1016 30 845 24.95 -3 26.5 58 -10.2 13.7
01:40 1016 30 845 24.95 -3 26.6 58 -10.2 13.7
01:45 1016 30 845 24.95 -3.1 26.5 58 -10.2 13.7
01:50 1016 30 845 24.95 -3.2 26.3 59 -10.1 13.8
01:55 1016 30 845 24.95 -3.3 26.1 58 -10.4 13.4
02:00 1016 30 845 24.95 -3.2 26.2 59 -10.2 13.7
02:05 1016 30 845 24.95 -3.1 26.3 58 -10.3 13.4
02:10 1016 30 845 24.95 -3 26.6 57 -10.3 13.5
02:15 1016 30 845 24.95 -3 26.5 58 -10.1 13.8
02:20 1016 30 845 24.95 -3 26.5 58 -10.2 13.7
02:25 1016 30 845 24.95 -3 26.6 58 -10.1 13.8
02:30 1016 30 845 24.95 -3 26.5 58 -10.1 13.8
02:35 1016 30 845 24.95 -3 26.5 59 -10 13.9
02:40 1016 30 845 24.95 -3 26.5 59 -9.9 14.1
02:45 1016 30 845 24.95 -3.1 26.5 59 -10 13.9
02:50 1016 30 845 24.95 -3 26.5 59 -10 14
02:55 1016 30 845 24.95 -3.1 26.4 60 -9.9 14.1
03:00 1016 30 845 24.95 -3.1 26.4 60 -9.8 14.4
03:05 1016 30 845 24.95 -3.1 26.4 60 -9.9 14.3
03:10 1015 29.97 845 24.95 -3.1 26.4 60 -9.8 14.3
03:15 1015 29.97 845 24.95 -3.1 26.4 60 -9.8 14.3
03:20 1015 29.97 845 24.95 -3.1 26.4 60 -9.7 14.5
03:25 1015 29.97 845 24.95 -3.1 26.4 61 -9.6 14.7
03:30 1016 30 845 24.95 -3.4 25.8 62 -9.7 14.6
03:35 1016 30 845 24.95 -3.6 25.6 62 -9.8 14.4
03:40 1016 30 845 24.95 -3.6 25.6 62 -9.8 14.3
03:45 1016 30 845 24.95 -3.6 25.5 63 -9.6 14.7
03:50 1016 30 845 24.95 -3.7 25.4 63 -9.8 14.4
03:55 1016 30 845 24.95 -3.5 25.7 63 -9.6 14.7
04:00 1015 29.97 845 24.95 -3.4 25.9 61 -10 14
04:05 1016 30 845 24.95 -3.4 26 61 -9.8 14.3
04:10 1016 30 845 24.95 -3.2 26.2 60 -10 14.1
04:15 1016 30 845 24.95 -3.1 26.4 59 -10 13.9
04:20 1016 30 845 24.95 -3 26.6 56 -10.6 12.9
04:25 1016 30 845 24.95 -2.7 27.1 56 -10.3 13.5
04:30 1016 30 845 24.95 -2.7 27.2 58 -9.9 14.1
04:35 1015 29.97 845 24.95 -2.8 27 59 -9.6 14.7
04:40 1015 29.97 845 24.95 -3.1 26.4 61 -9.6 14.8
04:45 1015 29.97 845 24.95 -3.3 26.1 61 -9.6 14.6
04:50 1015 29.97 845 24.95 -3.2 26.3 61 -9.7 14.5
04:55 1015 29.97 845 24.95 -3.2 26.3 61 -9.7 14.5
05:00 1015 29.97 845 24.95 -3.4 26 61 -9.8 14.4
05:05 1015 29.97 844 24.92 -3.6 25.6 63 -9.7 14.6
05:10 1015 29.97 844 24.92 -3.6 25.5 63 -9.7 14.5
05:15 1015 29.97 844 24.92 -3.7 25.3 64 -9.6 14.7
05:20 1015 29.97 844 24.92 -3.9 25.1 63 -9.9 14.2
05:25 1015 29.97 844 24.92 -3.8 25.1 64 -9.6 14.6
05:30 1015 29.97 844 24.92 -3.7 25.4 63 -9.7 14.6
05:35 1015 29.97 844 24.92 -3.6 25.4 63 -9.6 14.7
05:40 1015 29.97 844 24.92 -3.6 25.5 63 -9.7 14.5
05:45 1015 29.97 844 24.92 -3.6 25.5 63 -9.7 14.6
05:50 1015 29.97 844 24.92 -3.6 25.6 62 -9.8 14.3
05:55 1015 29.97 844 24.92 -3.6 25.6 63 -9.7 14.5
06:00 1015 29.97 844 24.92 -3.5 25.6 62 -9.7 14.5
06:05 1015 29.97 844 24.92 -3.5 25.7 62 -9.8 14.4
06:10 1014 29.94 844 24.92 -3.5 25.8 63 -9.5 14.9
06:15 1014 29.94 844 24.92 -3.4 25.8 63 -9.6 14.8
06:20 1014 29.94 844 24.92 -3.4 25.8 63 -9.6 14.7
06:25 1014 29.94 844 24.92 -3.6 25.6 61 -9.9 14.1
06:30 1014 29.94 843 24.89 -3.7 25.4 61 -10.2 13.7
06:35 1014 29.94 843 24.89 -3.6 25.6 60 -10.3 13.5
06:40 1014 29.94 843 24.89 -3.4 25.8 58 -10.5 13.1
06:45 1014 29.94 843 24.89 -3.2 26.2 58 -10.3 13.4
06:50 1014 29.94 843 24.89 -3.1 26.4 57 -10.4 13.4
06:55 1014 29.94 843 24.89 -3 26.7 56 -10.6 13
07:00 1014 29.94 843 24.89 -2.8 26.9 56 -10.3 13.4
07:05 1014 29.94 843 24.89 -2.9 26.7 56 -10.6 13
07:10 1014 29.94 843 24.89 -3 26.6 58 -10.2 13.7
07:15 1014 29.94 843 24.89 -3.2 26.2 60 -9.9 14.1
07:20 1014 29.94 843 24.89 -3.3 26 61 -9.9 14.2
07:25 1014 29.94 843 24.89 -3.4 26 59 -10.3 13.5
07:30 1014 29.94 843 24.89 -3.2 26.3 58 -10.4 13.3
07:35 1014 29.94 843 24.89 -3.1 26.5 59 -10 14
07:40 1014 29.94 843 24.89 -3.1 26.5 58 -10.1 13.7
07:45 1014 29.94 843 24.89 -3.1 26.5 59 -10 13.9
07:50 1013 29.91 843 24.89 -2.8 26.9 60 -9.7 14.6
07:55 1013 29.91 843 24.89 -2.8 27 60 -9.5 14.9
08:00 1013 29.91 843 24.89 -2.8 27 59 -9.7 14.6
08:05 1013 29.91 843 24.89 -2.5 27.4 56 -10.1 13.8
08:10 1013 29.91 842 24.86 -2.3 27.9 57 -9.6 14.8
08:15 1013 29.91 842 24.86 -2 28.4 56 -9.7 14.6
08:20 1013 29.91 842 24.86 -1.8 28.7 57 -9.3 15.3
08:25 1013 29.91 842 24.86 -1.8 28.8 58 -8.9 15.9
08:30 1013 29.91 842 24.86 -1.7 28.9 56 -9.4 15.1
08:35 1013 29.91 842 24.86 -1.9 28.6 57 -9.3 15.2
08:40 1013 29.91 842 24.86 -1.4 29.5 55 -9.3 15.3
08:45 1013 29.91 842 24.86 -1 30.2 54 -9.1 15.6
08:50 1013 29.91 842 24.86 -0.8 30.5 53 -9.3 15.3
08:55 1013 29.91 842 24.86 -0.7 30.7 53 -9.2 15.5
09:00 1013 29.91 842 24.86 -0.3 31.4 52 -9.1 15.6
09:05 1013 29.91 842 24.86 -0.3 31.5 53 -8.8 16.1
09:10 1013 29.91 842 24.86 -0.1 31.8 51 -9 15.8
09:15 1013 29.91 842 24.86 0.6 33 48 -9.2 15.5
09:20 1013 29.91 842 24.86 1.1 34 46 -9.3 15.3
09:25 1012 29.88 842 24.86 1.5 34.8 45 -9.1 15.6
09:30 1012 29.88 842 24.86 2.4 36.4 41 -9.4 15.1
09:35 1012 29.88 842 24.86 3.6 38.5 40 -8.8 16.1
09:40 1012 29.88 841 24.83 3.9 39 38 -9.2 15.5
09:45 1012 29.88 841 24.83 4 39.1 39 -8.9 16
09:50 1012 29.88 841 24.83 3.5 38.2 38 -9.6 14.8
09:55 1012 29.88 841 24.83 4.1 39.4 38 -9.1 15.7
10:00 1012 29.88 841 24.83 3.9 39 38 -9.3 15.3
10:05 1011 29.85 841 24.83 3 37.3 39 -9.7 14.6
10:10 1011 29.85 841 24.83 2.7 36.9 39 -10 13.9
10:15 1011 29.85 840 24.81 2.7 36.9 38 -10.1 13.8
10:20 1011 29.85 840 24.81 2.9 37.2 39 -9.9 14.2
10:25 1011 29.85 840 24.81 3.2 37.8 37 -10.2 13.6
10:30 1011 29.85 840 24.81 3.2 37.7 37 -10.1 13.7
10:35 1011 29.85 840 24.81 3.1 37.6 37 -10.2 13.6
10:40 1011 29.85 840 24.81 3.2 37.7 35 -10.7 12.7
10:45 1010 29.83 840 24.81 3.4 38.1 36 -10.4 13.3
10:50 1010 29.83 840 24.81 3.9 39 34 -10.4 13.2
10:55 1010 29.83 839 24.78 4 39.1 35 -10.1 13.8
11:00 1010 29.83 839 24.78 3.5 38.3 36 -10.2 13.6
11:05 1010 29.83 839 24.78 3.2 37.7 37 -10.3 13.5
11:10 1010 29.83 839 24.78 3 37.4 35 -11 12.3
11:15 1010 29.83 839 24.78 3 37.4 35 -11.2 11.9
11:20 1009 29.8 839 24.78 3.1 37.5 36 -10.5 13.1
11:25 1009 29.8 839 24.78 3 37.5 35 -10.8 12.5
11:30 1009 29.8 838 24.75 3 37.5 37 -10.2 13.6
11:35 1009 29.8 838 24.75 3.2 37.8 37 -10.2 13.7
11:40 1009 29.8 838 24.75 3.6 38.4 34 -10.8 12.6
11:45 1009 29.8 838 24.75 3.5 38.4 37 -9.7 14.5
11:50 1009 29.8 838 24.75 3.4 38.1 40 -9 15.8
11:55 1008 29.77 838 24.75 3.6 38.4 36 -10.2 13.7
12:00 1008 29.77 838 24.75 3.6 38.5 36 -10.2 13.7
12:05 1008 29.77 838 24.75 3.4 38.2 37 -10 14
12:10 1008 29.77 837 24.72 3.3 37.9 38 -9.6 14.7
12:15 1008 29.77 837 24.72 3.7 38.7 34 -10.8 12.5
12:20 1008 29.77 837 24.72 3.6 38.4 35 -10.4 13.3
12:25 1008 29.77 837 24.72 3.9 39 34 -10.6 12.9
12:30 1008 29.77 837 24.72 4 39.3 32 -11.2 11.8
12:35 1008 29.77 837 24.72 3.8 38.8 32 -11.4 11.5
12:40 1008 29.77 837 24.72 3.6 38.5 33 -11.2 11.8
12:45 1008 29.77 837 24.72 3.6 38.5 36 -10.3 13.5
12:50 1007 29.74 837 24.72 3.8 38.8 35 -10.4 13.2
12:55 1007 29.74 837 24.72 3.5 38.3 37 -10 14.1
13:00 1007 29.74 836 24.69 3.8 38.9 34 -10.7 12.7
13:05 1007 29.74 836 24.69 3.9 39 34 -10.4 13.2
13:10 1007 29.74 836 24.69 4 39.2 36 -9.9 14.2
13:15 1007 29.74 836 24.69 3.7 38.6 37 -9.8 14.3
13:20 1007 29.74 836 24.69 3.8 38.8 37 -9.7 14.5
13:25 1006 29.71 836 24.69 3.7 38.7 37 -9.5 14.9
13:30 1006 29.71 836 24.69 3.5 38.2 39 -9.2 15.5
13:35 1006 29.71 835 24.66 3.3 37.9 38 -9.6 14.8
13:40 1006 29.71 835 24.66 3.3 37.9 40 -9.1 15.7
13:45 1006 29.71 835 24.66 3.2 37.8 41 -8.7 16.3
13:50 1006 29.71 835 24.66 3.1 37.6 40 -9.3 15.3
13:55 1006 29.71 835 24.66 3 37.4 41 -9.1 15.5
14:00 1006 29.71 835 24.66 3 37.4 43 -8.4 16.9
14:05 1006 29.71 835 24.66 3 37.5 43 -8.3 17
14:10 1006 29.71 835 24.66 3 37.4 42 -8.5 16.6
14:15 1006 29.71 835 24.66 3 37.4 42 -8.6 16.5
14:20 1005 29.68 835 24.66 2.9 37.3 44 -8.2 17.3
14:25 1005 29.68 835 24.66 2.9 37.2 45 -8 17.6
14:30 1005 29.68 834 24.63 3 37.4 45 -8 17.7
14:35 1005 29.68 834 24.63 3.1 37.5 44 -8.1 17.5
14:40 1005 29.68 834 24.63 3.2 37.8 43 -8.2 17.3
14:45 1005 29.68 834 24.63 3.2 37.7 45 -7.7 18.1
14:50 1005 29.68 834 24.63 2.6 36.7 47 -7.7 18.2
14:55 1005 29.68 834 24.63 2.2 35.9 47 -7.9 17.7
15:00 1004 29.65 834 24.63 2.1 35.8 48 -7.7 18.1
15:05 1004 29.65 833 24.6 2.1 35.8 47 -7.9 17.7
15:10 1004 29.65 833 24.6 2.2 35.9 47 -7.9 17.8
15:15 1004 29.65 833 24.6 2.2 35.9 47 -7.9 17.8
15:20 1004 29.65 833 24.6 2.1 35.9 48 -7.8 17.9
15:25 1004 29.65 833 24.6 2.1 35.8 48 -7.8 18
15:30 1004 29.65 833 24.6 2 35.6 48 -7.8 18
15:35 1003 29.62 833 24.6 2 35.5 48 -8 17.7
15:40 1003 29.62 832 24.57 2.1 35.7 49 -7.7 18.2
15:45 1003 29.62 832 24.57 2.2 36 48 -7.6 18.4
15:50 1003 29.62 832 24.57 2.3 36.1 49 -7.3 18.9
15:55 1003 29.62 832 24.57 2.4 36.4 49 -7.2 19
16:00 1003 29.62 832 24.57 2.5 36.6 47 -7.6 18.4
16:05 1003 29.62 832 24.57 2.6 36.6 48 -7.2 19
16:10 1002 29.59 832 24.57 2.5 36.5 51 -6.7 19.9
16:15 1002 29.59 831 24.54 2.4 36.3 51 -6.8 19.7
16:20 1002 29.59 831 24.54 2.3 36.2 52 -6.6 20.2
16:25 1002 29.59 831 24.54 2.1 35.8 49 -7.4 18.6
16:30 1002 29.59 831 24.54 1.8 35.3 50 -7.5 18.5
16:35 1002 29.59 831 24.54 1.8 35.2 52 -7.2 19.1
16:40 1002 29.59 831 24.54 2.1 35.7 50 -7.3 18.8
16:45 1002 29.59 831 24.54 2.5 36.5 50 -6.8 19.7
16:50 1002 29.59 831 24.54 2.7 36.9 51 -6.4 20.5
16:55 1002 29.59 831 24.54 2.7 36.9 52 -6.2 20.9
17:00 1001 29.56 831 24.54 2.9 37.2 52 -5.9 21.3
17:05 1001 29.56 830 24.51 3.5 38.4 52 -5.5 22.2
17:10 1001 29.56 830 24.51 3.8 38.8 52 -5.2 22.7
17:15 1001 29.56 830 24.51 3.8 38.9 53 -4.9 23.1
17:20 1001 29.56 830 24.51 3.8 38.9 52 -5.1 22.8
17:25 1001 29.56 830 24.51 3.8 38.9 53 -5 23.1
17:30 1001 29.56 830 24.51 3.7 38.7 54 -4.7 23.5
17:35 1001 29.56 830 24.51 3.9 38.9 52 -5 23
17:40 1001 29.56 830 24.51 4 39.2 54 -4.5 23.8
17:45 1001 29.56 830 24.51 4 39.1 56 -3.9 25
17:50 1001 29.56 830 24.51 4.3 39.8 55 -3.9 25
17:55 1001 29.56 830 24.51 4.5 40.2 54 -3.9 25
18:00 1001 29.56 830 24.51 4.7 40.5 53 -3.9 24.9
18:05 1001 29.56 830 24.51 4.8 40.7 54 -3.8 25.2
18:10 1001 29.56 830 24.51 4.9 40.8 53 -3.8 25.2
18:15 1000 29.53 830 24.51 4.9 40.9 54 -3.5 25.6
18:20 1000 29.53 830 24.51 4.9 40.8 54 -3.6 25.6
18:25 1000 29.53 830 24.51 4.8 40.7 54 -3.6 25.5
18:30 1000 29.53 830 24.51 4.9 40.8 54 -3.6 25.5
18:35 1000 29.53 830 24.51 4.9 40.8 55 -3.4 26
18:40 1000 29.53 830 24.51 4.8 40.6 57 -3.1 26.4
18:45 1000 29.53 829 24.48 4.6 40.3 58 -3 26.6
18:50 1000 29.53 829 24.48 4.4 40 58 -3.1 26.4
18:55 1000 29.53 829 24.48 4.4 39.9 59 -3 26.6
19:00 1000 29.53 829 24.48 4.3 39.8 58 -3.2 26.3
19:05 1000 29.53 829 24.48 4.3 39.8 58 -3.1 26.4
19:10 1000 29.53 829 24.48 4.3 39.7 59 -3 26.6
19:15 1000 29.53 829 24.48 4.2 39.6 59 -3 26.5
19:20 1000 29.53 829 24.48 4.1 39.4 60 -2.9 26.8
19:25 1000 29.53 829 24.48 4 39.1 61 -2.9 26.7
19:30 1000 29.53 829 24.48 3.9 39.1 60 -3.2 26.3
19:35 1000 29.53 829 24.48 4.1 39.3 61 -2.8 26.9
19:40 1000 29.53 829 24.48 4 39.1 60 -3 26.5
19:45 999 29.5 829 24.48 4.1 39.3 60 -3.1 26.4
19:50 999 29.5 829 24.48 4.1 39.3 60 -2.9 26.7
19:55 999 29.5 829 24.48 4.1 39.3 59 -3.3 26
20:00 999 29.5 829 24.48 4.3 39.7 60 -2.8 26.9
20:05 999 29.5 829 24.48 4.1 39.5 63 -2.2 28
20:10 999 29.5 829 24.48 3.8 38.9 65 -2.2 28.1
20:15 999 29.5 829 24.48 3.7 38.7 67 -1.8 28.8
20:20 999 29.5 828 24.45 3.3 38 74 -0.9 30.3
20:25 999 29.5 828 24.45 2.8 37.1 75 -1.1 30
20:30 999 29.5 829 24.48 2.7 36.9 75 -1.3 29.6
20:35 999 29.5 829 24.48 2.8 37 78 -0.8 30.6
20:40 999 29.5 829 24.48 2.3 36.2 82 -0.4 31.2
20:45 1000 29.53 829 24.48 1.8 35.3 85 -0.5 31.1
20:50 1000 29.53 829 24.48 1.6 34.9 86 -0.6 31
20:55 1000 29.53 829 24.48 1.4 34.4 87 -0.6 30.9
21:00 1000 29.53 830 24.51 1.3 34.3 87 -0.7 30.7
21:05 1001 29.56 830 24.51 0.7 33.3 89 -0.9 30.4
21:10 1001 29.56 830 24.51 0.2 32.3 91 -1.1 30
21:15 1001 29.56 830 24.51 0 32 91 -1.2 29.8
21:20 1001 29.56 830 24.51 -0.1 31.7 92 -1.3 29.7
21:25 1000 29.53 830 24.51 -0.3 31.5 93 -1.3 29.6
21:30 1000 29.53 829 24.48 -0.4 31.4 93 -1.4 29.5
21:35 1000 29.53 829 24.48 -0.4 31.2 93 -1.4 29.5
21:40 1000 29.53 829 24.48 -0.5 31.1 94 -1.4 29.4
21:45 1000 29.53 829 24.48 -0.6 31 93 -1.6 29.1
21:50 1000 29.53 829 24.48 -0.4 31.2 86 -2.5 27.6
21:55 1000 29.53 829 24.48 -0.1 31.9 85 -2.4 27.7
22:00 1000 29.53 829 24.48 0.2 32.4 78 -3.2 26.3
22:05 1000 29.53 829 24.48 0.7 33.3 72 -3.7 25.3
22:10 1000 29.53 829 24.48 1.1 33.9 71 -3.5 25.6
22:15 1000 29.53 829 24.48 1.1 33.9 68 -4.1 24.7
22:20 1000 29.53 829 24.48 1.2 34.2 67 -4.3 24.2
22:25 1000 29.53 829 24.48 1.3 34.3 64 -4.8 23.3
22:30 1000 29.53 829 24.48 1.3 34.4 65 -4.6 23.6
22:35 1000 29.53 829 24.48 1.2 34.2 64 -4.8 23.4
22:40 1000 29.53 829 24.48 1.2 34.1 66 -4.6 23.8
22:45 1000 29.53 830 24.51 1.1 34 66 -4.6 23.8
22:50 1001 29.56 830 24.51 1.2 34.1 64 -4.8 23.3
22:55 1001 29.56 830 24.51 1.2 34.2 64 -4.9 23.3
23:00 1001 29.56 830 24.51 1.4 34.5 64 -4.7 23.5
23:05 1001 29.56 830 24.51 1.5 34.7 64 -4.6 23.7
23:10 1001 29.56 830 24.51 1.4 34.4 72 -3.1 26.5
23:15 1001 29.56 830 24.51 1 33.7 73 -3.3 26.1
23:20 1000 29.53 830 24.51 1 33.8 72 -3.6 25.6
23:25 1000 29.53 830 24.51 1.1 34 72 -3.5 25.8
23:30 1000 29.53 830 24.51 1.1 34 73 -3.2 26.2
23:35 1000 29.53 830 24.51 1.1 33.9 73 -3.2 26.3
23:40 1000 29.53 830 24.51 1.1 34 71 -3.5 25.6
23:45 1000 29.53 830 24.51 1.4 34.5 66 -4.4 24.1
23:50 1000 29.53 830 24.51 1.6 34.9 63 -4.6 23.7
23:55 1000 29.53 830 24.51 1.7 35 60 -5.1 22.7
24:00 1000 29.53 830 24.51 1.8 35.2 59 -5.3 22.4